• Join FlightAware (Why Join?)
  • Login
  • US Flag 
11:56AM EDT


 

Airport Tracker/Info


-or-


 

Live Flight TrackerFlight Track Log ✈ KAP444 ✈ 28-Apr-2013 ✈ KMVY - KHPN

Flight Track Log - Related Links

Times and Time Zones

All times are in EDT time to prevent confusion due to time zone crossing. See the KAP444 flight status page for this flight to view local times or setup timezone preferences in your user account.

Time Position Orientation Groundspeed Altitude Reporting Facility
EDT Latitude Longitude Course Direction KTS MPH feet Rate Location/Type
04:55PM 41.3461 -70.9167 264° West 123 142 5,000  Level Boston Center
04:57PM 41.3406 -70.9831 264° West 124 143 6,000 540 Climbing Boston Center
04:58PM 41.3369 -71.0303 264° West 127 146 6,400 240 Climbing Boston Center
04:58PM 41.3336 -71.0828 265° West 154 177 6,500  Climbing Boston Center
04:59PM 41.3239 -71.1436 258° West 167 192 6,500  Level Boston Center
05:01PM 41.3183 -71.2075 263° West 170 196 6,500  Level Boston Center
05:01PM 41.3128 -71.2656 263° West 174 200 6,500  Level Boston Center
05:02PM 41.3050 -71.3319 261° West 176 203 6,500  Level Boston Center
05:03PM 41.3014 -71.3928 266° West 177 204 6,500  Level Boston Center
05:05PM 41.2812 -71.4189 224° Southwest  Level FlightAware Approximate
05:05PM 41.2919 -71.5175 224° Southwest 176 203 6,500  Level Boston Center
05:06PM 41.2864 -71.5811 263° West 174 200 6,500  Level Boston Center
05:07PM 41.2786 -71.6528 262° West 174 200 6,500  Level Boston Center
05:08PM 41.2747 -71.7136 265° West 173 199 6,500  Level Boston Center
05:09PM 41.2689 -71.7772 263° West 174 200 6,500  Level Boston Center
05:10PM 41.2608 -71.8408 260° West 171 197 6,500  Level Boston Center
05:11PM 41.2550 -71.9017 263° West 170 196 6,500  Level Boston Center
05:12PM 41.2511 -71.9653 265° West 172 198 6,500  Level Boston Center
05:13PM 41.2450 -72.0289 263° West 170 196 6,500  Level Boston Center
05:14PM 41.2392 -72.0894 263° West 171 197 6,500  Level Boston Center
05:16PM 41.2289 -72.1614 259° West 170 196 6,500  Level Boston Center
05:18PM 41.2079 -72.2621 255° West  Level FlightAware Approximate
05:18PM 41.2167 -72.3167 255° West 172 198 6,500  Level New York TRACON
05:19PM 41.2000 -72.3833 252° West 171 197 6,500  Level New York TRACON
05:20PM 41.2000 -72.4500 270° West 172 198 6,500  Level New York TRACON
05:21PM 41.2000 -72.5000 270° West 169 194 6,500  Level New York TRACON
05:22PM 41.1833 -72.5667 252° West 169 194 6,500  Level New York TRACON
05:23PM 41.1833 -72.6333 270° West 168 193 6,500  Level New York TRACON
05:24PM 41.1833 -72.6833 270° West 170 196 6,500  Level New York TRACON
05:25PM 41.1667 -72.7500 252° West 170 196 6,500  Level New York TRACON
05:26PM 41.1667 -72.8167 270° West 170 196 6,500  Level New York TRACON
05:27PM 41.1500 -72.8833 252° West 171 197 6,500 -60 Level New York TRACON
05:28PM 41.1500 -72.9333 270° West 167 192 6,400 -300 Descending New York TRACON
05:29PM 41.1500 -73.0000 270° West 172 198 6,000 -420 Descending New York TRACON
05:30PM 41.1333 -73.0667 252° West 171 197 5,600 -420 Descending New York TRACON
05:31PM 41.1333 -73.1333 270° West 172 198 5,200 -420 Descending New York TRACON
05:32PM 41.1167 -73.1833 246° West 171 197 4,800 -480 Descending New York TRACON
05:33PM 41.1167 -73.2500 270° West 169 194 4,300 -540 Descending New York TRACON
05:34PM 41.1167 -73.3167 270° West 168 193 3,800 -540 Descending New York TRACON
05:35PM 41.1000 -73.3667 246° West 167 192 3,300 -540 Descending New York TRACON
05:36PM 41.1000 -73.4333 270° West 166 191 2,800 -480 Descending New York TRACON
05:37PM 41.1000 -73.5000 270° West 164 189 2,400 -420 Descending New York TRACON
05:38PM 41.0833 -73.5500 246° West 165 190 2,000 -300 Descending New York TRACON
05:39PM 41.0833 -73.6000 270° West 157 181 1,900  Descending New York TRACON
05:40PM 41.1000 -73.6500 294° West 161 185 2,000 60 Climbing New York TRACON
05:41PM 41.1333 -73.7000 312° West 162 186 2,100 -300 Climbing New York TRACON
05:42PM 41.1000 -73.7333 217° Southwest 126 145 1,500 -600 Descending New York TRACON
05:44PM 41.0669 -73.7076 150° Southeast  Level Estimated
05:51PM 41.0669 -73.7076 37° Northeast  Level Estimated
05:52PM 41.0669 -73.7076 37° Northeast  Level Estimated
05:53PM 41.0669 -73.7076 37° Northeast  Level Estimated
05:54PM 41.0669 -73.7076 37° Northeast  Level Estimated
05:55PM 41.0669 -73.7076 37° Northeast  Level Estimated
05:56PM 41.0669 -73.7076 37° Northeast  Level Estimated
05:57PM 41.0669 -73.7076 37° Northeast  Level Estimated
05:58PM 41.0669 -73.7076 37° Northeast  Level Estimated
05:59PM 41.0669 -73.7076 37° Northeast  Level Estimated
06:00PM 41.0669 -73.7076 37° Northeast  Level Estimated